sensor_id;sensor_type;location;lat;lon;timestamp;P1;durP1;ratioP1;P2;durP2;ratioP2
12912;SDS011;6524;51.368;11.984;2024-01-15T00:04:07;19.00;;;11.63;;
12912;SDS011;6524;51.368;11.984;2024-01-15T00:09:07;18.63;;;11.10;;
12912;SDS011;6524;51.368;11.984;2024-01-15T00:14:08;19.77;;;12.17;;
12912;SDS011;6524;51.368;11.984;2024-01-15T00:19:08;20.23;;;11.47;;
12912;SDS011;6524;51.368;11.984;2024-01-15T00:24:08;17.90;;;10.33;;
12912;SDS011;6524;51.368;11.984;2024-01-15T00:29:09;17.70;;;10.80;;
12912;SDS011;6524;51.368;11.984;2024-01-15T00:34:09;19.87;;;11.63;;
12912;SDS011;6524;51.368;11.984;2024-01-15T00:39:10;16.93;;;11.27;;
12912;SDS011;6524;51.368;11.984;2024-01-15T00:44:10;18.23;;;11.23;;
12912;SDS011;6524;51.368;11.984;2024-01-15T00:49:12;16.00;;;10.73;;
12912;SDS011;6524;51.368;11.984;2024-01-15T00:54:13;17.47;;;10.73;;
12912;SDS011;6524;51.368;11.984;2024-01-15T00:59:13;17.40;;;10.83;;
12912;SDS011;6524;51.368;11.984;2024-01-15T05:04:38;10.40;;;6.60;;
12912;SDS011;6524;51.368;11.984;2024-01-15T05:09:38;11.90;;;6.90;;
12912;SDS011;6524;51.368;11.984;2024-01-15T05:14:38;12.30;;;7.77;;
12912;SDS011;6524;51.368;11.984;2024-01-15T05:19:39;13.00;;;7.30;;
12912;SDS011;6524;51.368;11.984;2024-01-15T05:24:39;12.13;;;7.30;;
12912;SDS011;6524;51.368;11.984;2024-01-15T05:29:39;12.40;;;7.40;;
12912;SDS011;6524;51.368;11.984;2024-01-15T05:34:40;11.37;;;6.83;;
12912;SDS011;6524;51.368;11.984;2024-01-15T05:39:40;11.53;;;7.03;;
12912;SDS011;6524;51.368;11.984;2024-01-15T05:44:40;12.80;;;6.80;;
12912;SDS011;6524;51.368;11.984;2024-01-15T05:49:41;12.45;;;7.15;;
12912;SDS011;6524;51.368;11.984;2024-01-15T05:54:41;12.10;;;6.67;;
12912;SDS011;6524;51.368;11.984;2024-01-15T05:59:42;11.93;;;7.20;;
12912;SDS011;6524;51.368;11.984;2024-01-15T06:04:44;9.73;;;6.60;;
12912;SDS011;6524;51.368;11.984;2024-01-15T06:09:44;10.53;;;6.33;;
12912;SDS011;6524;51.368;11.984;2024-01-15T06:14:45;9.60;;;6.57;;
12912;SDS011;6524;51.368;11.984;2024-01-15T06:19:45;11.67;;;6.50;;
12912;SDS011;6524;51.368;11.984;2024-01-15T06:24:45;11.70;;;6.73;;
12912;SDS011;6524;51.368;11.984;2024-01-15T06:29:46;15.77;;;8.63;;
12912;SDS011;6524;51.368;11.984;2024-01-15T06:34:49;8.77;;;5.73;;
12912;SDS011;6524;51.368;11.984;2024-01-15T06:39:49;10.10;;;6.28;;
12912;SDS011;6524;51.368;11.984;2024-01-15T06:44:49;8.40;;;5.93;;
12912;SDS011;6524;51.368;11.984;2024-01-15T06:49:50;10.90;;;6.47;;
12912;SDS011;6524;51.368;11.984;2024-01-15T06:54:51;10.20;;;6.27;;
12912;SDS011;6524;51.368;11.984;2024-01-15T06:59:52;11.33;;;6.60;;
12912;SDS011;6524;51.368;11.984;2024-01-15T07:04:52;9.57;;;6.13;;
12912;SDS011;6524;51.368;11.984;2024-01-15T07:09:52;10.63;;;6.70;;
12912;SDS011;6524;51.368;11.984;2024-01-15T07:14:53;8.97;;;5.63;;
12912;SDS011;6524;51.368;11.984;2024-01-15T07:19:55;10.90;;;6.43;;
12912;SDS011;6524;51.368;11.984;2024-01-15T07:24:55;10.73;;;7.10;;
12912;SDS011;6524;51.368;11.984;2024-01-15T07:29:56;10.93;;;6.73;;
12912;SDS011;6524;51.368;11.984;2024-01-15T07:34:56;10.73;;;6.70;;
12912;SDS011;6524;51.368;11.984;2024-01-15T07:39:56;9.23;;;6.70;;
12912;SDS011;6524;51.368;11.984;2024-01-15T07:44:57;8.77;;;5.93;;
12912;SDS011;6524;51.368;11.984;2024-01-15T07:49:57;9.90;;;6.68;;
12912;SDS011;6524;51.368;11.984;2024-01-15T07:54:57;10.03;;;6.60;;
12912;SDS011;6524;51.368;11.984;2024-01-15T07:59:59;10.77;;;6.53;;
12912;SDS011;6524;51.368;11.984;2024-01-15T08:05:01;10.97;;;6.60;;
12912;SDS011;6524;51.368;11.984;2024-01-15T08:10:01;11.20;;;6.77;;
12912;SDS011;6524;51.368;11.984;2024-01-15T08:15:02;12.00;;;7.10;;
12912;SDS011;6524;51.368;11.984;2024-01-15T08:20:03;10.80;;;7.17;;
12912;SDS011;6524;51.368;11.984;2024-01-15T08:25:05;12.83;;;7.10;;
12912;SDS011;6524;51.368;11.984;2024-01-15T08:30:06;11.77;;;7.10;;
12912;SDS011;6524;51.368;11.984;2024-01-15T08:35:06;11.73;;;6.30;;
12912;SDS011;6524;51.368;11.984;2024-01-15T08:40:07;10.97;;;6.77;;
12912;SDS011;6524;51.368;11.984;2024-01-15T08:45:08;11.80;;;6.80;;
12912;SDS011;6524;51.368;11.984;2024-01-15T08:50:09;11.90;;;6.90;;
12912;SDS011;6524;51.368;11.984;2024-01-15T08:55:10;10.47;;;6.27;;
12912;SDS011;6524;51.368;11.984;2024-01-15T09:00:11;10.33;;;6.40;;
12912;SDS011;6524;51.368;11.984;2024-01-15T09:05:12;11.10;;;6.53;;
12912;SDS011;6524;51.368;11.984;2024-01-15T09:10:13;9.93;;;6.37;;
12912;SDS011;6524;51.368;11.984;2024-01-15T09:15:14;12.97;;;6.53;;
12912;SDS011;6524;51.368;11.984;2024-01-15T09:20:15;11.40;;;6.83;;
12912;SDS011;6524;51.368;11.984;2024-01-15T09:25:16;10.97;;;6.67;;
12912;SDS011;6524;51.368;11.984;2024-01-15T09:30:16;11.03;;;6.60;;
12912;SDS011;6524;51.368;11.984;2024-01-15T09:35:17;10.03;;;6.77;;
12912;SDS011;6524;51.368;11.984;2024-01-15T09:40:18;11.07;;;6.43;;
12912;SDS011;6524;51.368;11.984;2024-01-15T09:45:20;11.47;;;6.23;;
12912;SDS011;6524;51.368;11.984;2024-01-15T09:50:21;9.57;;;6.30;;
12912;SDS011;6524;51.368;11.984;2024-01-15T09:55:22;10.13;;;6.37;;
12912;SDS011;6524;51.368;11.984;2024-01-15T10:00:23;11.83;;;6.27;;
12912;SDS011;6524;51.368;11.984;2024-01-15T10:05:26;11.00;;;6.30;;
12912;SDS011;6524;51.368;11.984;2024-01-15T10:10:27;12.37;;;6.67;;
12912;SDS011;6524;51.368;11.984;2024-01-15T10:15:28;9.57;;;5.80;;
12912;SDS011;6524;51.368;11.984;2024-01-15T10:20:28;10.97;;;6.70;;
12912;SDS011;6524;51.368;11.984;2024-01-15T10:25:29;11.03;;;6.23;;
12912;SDS011;6524;51.368;11.984;2024-01-15T10:30:31;10.60;;;6.30;;
12912;SDS011;6524;51.368;11.984;2024-01-15T10:35:33;10.77;;;6.70;;
12912;SDS011;6524;51.368;11.984;2024-01-15T10:40:34;11.00;;;7.00;;
12912;SDS011;6524;51.368;11.984;2024-01-15T10:45:35;10.67;;;6.53;;
12912;SDS011;6524;51.368;11.984;2024-01-15T10:50:35;10.63;;;7.03;;
12912;SDS011;6524;51.368;11.984;2024-01-15T10:55:36;11.73;;;7.70;;
12912;SDS011;6524;51.368;11.984;2024-01-15T11:00:38;10.53;;;6.93;;
12912;SDS011;6524;51.368;11.984;2024-01-15T11:05:39;11.30;;;7.50;;
12912;SDS011;6524;51.368;11.984;2024-01-15T11:10:43;11.43;;;7.47;;
12912;SDS011;6524;51.368;11.984;2024-01-15T11:32:14;11.83;;;6.90;;
12912;SDS011;6524;51.368;11.984;2024-01-15T11:41:57;10.97;;;6.87;;
12912;SDS011;6524;51.368;11.984;2024-01-15T11:47:00;10.80;;;7.03;;
12912;SDS011;6524;51.368;11.984;2024-01-15T11:52:06;10.40;;;6.73;;
12912;SDS011;6524;51.368;11.984;2024-01-15T11:57:09;9.33;;;6.97;;
12912;SDS011;6524;51.368;11.984;2024-01-15T12:02:15;10.53;;;6.57;;
12912;SDS011;6524;51.368;11.984;2024-01-15T12:07:15;9.37;;;6.07;;
12912;SDS011;6524;51.368;11.984;2024-01-15T12:12:21;9.80;;;6.27;;
12912;SDS011;6524;51.368;11.984;2024-01-15T12:17:29;7.80;;;5.20;;
12912;SDS011;6524;51.368;11.984;2024-01-15T12:22:30;7.37;;;4.47;;
12912;SDS011;6524;51.368;11.984;2024-01-15T12:27:30;9.37;;;5.37;;
12912;SDS011;6524;51.368;11.984;2024-01-15T12:32:31;8.53;;;5.00;;
12912;SDS011;6524;51.368;11.984;2024-01-15T12:37:32;6.97;;;4.90;;
12912;SDS011;6524;51.368;11.984;2024-01-15T12:42:33;8.20;;;4.97;;
12912;SDS011;6524;51.368;11.984;2024-01-15T12:47:34;7.53;;;4.87;;
12912;SDS011;6524;51.368;11.984;2024-01-15T12:52:35;7.13;;;5.10;;
12912;SDS011;6524;51.368;11.984;2024-01-15T12:57:37;9.23;;;5.17;;
12912;SDS011;6524;51.368;11.984;2024-01-15T13:02:38;8.03;;;5.07;;
12912;SDS011;6524;51.368;11.984;2024-01-15T13:07:44;9.67;;;5.70;;
12912;SDS011;6524;51.368;11.984;2024-01-15T13:12:47;7.20;;;5.57;;
12912;SDS011;6524;51.368;11.984;2024-01-15T13:17:48;7.90;;;5.57;;
12912;SDS011;6524;51.368;11.984;2024-01-15T13:22:48;8.90;;;5.80;;
12912;SDS011;6524;51.368;11.984;2024-01-15T13:27:50;7.97;;;5.30;;
12912;SDS011;6524;51.368;11.984;2024-01-15T13:32:50;6.37;;;4.40;;
12912;SDS011;6524;51.368;11.984;2024-01-15T13:37:51;8.97;;;5.77;;
12912;SDS011;6524;51.368;11.984;2024-01-15T13:42:53;6.77;;;4.40;;
12912;SDS011;6524;51.368;11.984;2024-01-15T13:47:54;6.23;;;4.77;;
12912;SDS011;6524;51.368;11.984;2024-01-15T13:52:55;6.57;;;4.40;;
12912;SDS011;6524;51.368;11.984;2024-01-15T13:57:55;7.33;;;5.40;;
12912;SDS011;6524;51.368;11.984;2024-01-15T14:02:56;7.60;;;5.27;;
12912;SDS011;6524;51.368;11.984;2024-01-15T14:07:57;8.00;;;5.23;;
12912;SDS011;6524;51.368;11.984;2024-01-15T14:12:59;8.27;;;5.27;;
12912;SDS011;6524;51.368;11.984;2024-01-15T14:17:59;8.77;;;5.63;;
12912;SDS011;6524;51.368;11.984;2024-01-15T14:23:01;8.10;;;5.20;;
12912;SDS011;6524;51.368;11.984;2024-01-15T14:28:01;8.30;;;5.50;;
12912;SDS011;6524;51.368;11.984;2024-01-15T14:33:02;7.97;;;5.70;;
12912;SDS011;6524;51.368;11.984;2024-01-15T14:38:02;9.93;;;6.20;;
12912;SDS011;6524;51.368;11.984;2024-01-15T14:43:03;9.23;;;5.60;;
12912;SDS011;6524;51.368;11.984;2024-01-15T14:48:04;8.03;;;5.77;;
12912;SDS011;6524;51.368;11.984;2024-01-15T14:53:05;7.87;;;5.10;;
12912;SDS011;6524;51.368;11.984;2024-01-15T14:58:05;8.40;;;5.57;;
12912;SDS011;6524;51.368;11.984;2024-01-15T15:03:06;7.90;;;5.67;;
12912;SDS011;6524;51.368;11.984;2024-01-15T15:08:06;7.10;;;5.40;;
12912;SDS011;6524;51.368;11.984;2024-01-15T15:13:12;8.00;;;4.87;;
12912;SDS011;6524;51.368;11.984;2024-01-15T15:18:13;6.93;;;4.47;;
12912;SDS011;6524;51.368;11.984;2024-01-15T15:23:13;6.43;;;4.40;;
12912;SDS011;6524;51.368;11.984;2024-01-15T15:28:14;7.27;;;5.20;;
12912;SDS011;6524;51.368;11.984;2024-01-15T15:33:16;7.70;;;4.67;;
12912;SDS011;6524;51.368;11.984;2024-01-15T15:38:18;7.67;;;5.70;;
12912;SDS011;6524;51.368;11.984;2024-01-15T15:43:19;7.20;;;4.83;;
12912;SDS011;6524;51.368;11.984;2024-01-15T15:48:19;6.60;;;4.93;;
12912;SDS011;6524;51.368;11.984;2024-01-15T15:53:20;8.10;;;4.60;;
12912;SDS011;6524;51.368;11.984;2024-01-15T15:58:22;7.90;;;4.90;;
12912;SDS011;6524;51.368;11.984;2024-01-15T16:03:22;7.67;;;4.53;;
12912;SDS011;6524;51.368;11.984;2024-01-15T16:08:23;8.00;;;4.60;;
12912;SDS011;6524;51.368;11.984;2024-01-15T16:13:23;5.33;;;3.73;;
12912;SDS011;6524;51.368;11.984;2024-01-15T16:18:24;4.37;;;3.53;;
12912;SDS011;6524;51.368;11.984;2024-01-15T16:23:27;5.27;;;3.73;;
12912;SDS011;6524;51.368;11.984;2024-01-15T16:28:28;4.40;;;3.20;;
12912;SDS011;6524;51.368;11.984;2024-01-15T16:33:29;4.07;;;3.40;;
12912;SDS011;6524;51.368;11.984;2024-01-15T16:38:29;4.60;;;3.70;;
12912;SDS011;6524;51.368;11.984;2024-01-15T16:43:30;4.77;;;3.77;;
12912;SDS011;6524;51.368;11.984;2024-01-15T16:48:31;6.50;;;3.97;;
12912;SDS011;6524;51.368;11.984;2024-01-15T16:53:32;3.90;;;3.40;;
12912;SDS011;6524;51.368;11.984;2024-01-15T16:58:33;5.70;;;3.70;;
12912;SDS011;6524;51.368;11.984;2024-01-15T17:03:34;4.33;;;3.17;;
12912;SDS011;6524;51.368;11.984;2024-01-15T17:08:35;3.83;;;3.00;;
12912;SDS011;6524;51.368;11.984;2024-01-15T17:13:35;4.43;;;3.10;;
12912;SDS011;6524;51.368;11.984;2024-01-15T17:18:36;4.23;;;3.00;;
12912;SDS011;6524;51.368;11.984;2024-01-15T17:23:36;4.13;;;3.30;;
12912;SDS011;6524;51.368;11.984;2024-01-15T17:28:37;5.07;;;3.63;;
12912;SDS011;6524;51.368;11.984;2024-01-15T17:33:38;5.17;;;2.90;;
12912;SDS011;6524;51.368;11.984;2024-01-15T17:38:38;3.83;;;3.43;;
12912;SDS011;6524;51.368;11.984;2024-01-15T17:43:39;3.53;;;3.07;;
12912;SDS011;6524;51.368;11.984;2024-01-15T17:48:40;4.63;;;2.90;;
12912;SDS011;6524;51.368;11.984;2024-01-15T17:53:40;4.37;;;3.10;;
12912;SDS011;6524;51.368;11.984;2024-01-15T17:58:41;6.80;;;3.23;;
12912;SDS011;6524;51.368;11.984;2024-01-15T18:03:43;4.57;;;3.40;;
12912;SDS011;6524;51.368;11.984;2024-01-15T18:08:44;3.73;;;3.13;;
12912;SDS011;6524;51.368;11.984;2024-01-15T18:13:45;4.63;;;3.53;;
12912;SDS011;6524;51.368;11.984;2024-01-15T18:18:46;4.03;;;3.23;;
12912;SDS011;6524;51.368;11.984;2024-01-15T18:23:48;6.57;;;3.00;;
12912;SDS011;6524;51.368;11.984;2024-01-15T18:28:49;4.23;;;2.90;;
12912;SDS011;6524;51.368;11.984;2024-01-15T18:33:49;6.90;;;3.70;;
12912;SDS011;6524;51.368;11.984;2024-01-15T18:38:50;4.20;;;3.10;;
12912;SDS011;6524;51.368;11.984;2024-01-15T18:43:56;3.60;;;2.97;;
12912;SDS011;6524;51.368;11.984;2024-01-15T18:48:57;3.57;;;2.90;;
12912;SDS011;6524;51.368;11.984;2024-01-15T18:53:58;3.53;;;2.97;;
12912;SDS011;6524;51.368;11.984;2024-01-15T18:58:59;3.57;;;2.90;;
12912;SDS011;6524;51.368;11.984;2024-01-15T19:04:00;5.50;;;3.10;;
12912;SDS011;6524;51.368;11.984;2024-01-15T19:09:01;4.93;;;3.03;;
12912;SDS011;6524;51.368;11.984;2024-01-15T19:14:03;6.00;;;3.90;;
12912;SDS011;6524;51.368;11.984;2024-01-15T19:19:06;3.80;;;3.20;;
12912;SDS011;6524;51.368;11.984;2024-01-15T19:24:06;3.50;;;3.20;;
12912;SDS011;6524;51.368;11.984;2024-01-15T19:29:07;3.47;;;2.57;;
12912;SDS011;6524;51.368;11.984;2024-01-15T19:34:09;2.97;;;2.77;;
12912;SDS011;6524;51.368;11.984;2024-01-15T19:39:10;3.37;;;2.70;;
12912;SDS011;6524;51.368;11.984;2024-01-15T19:44:10;3.60;;;2.40;;
12912;SDS011;6524;51.368;11.984;2024-01-15T19:49:11;2.83;;;2.47;;
12912;SDS011;6524;51.368;11.984;2024-01-15T19:54:12;3.23;;;2.10;;
12912;SDS011;6524;51.368;11.984;2024-01-15T19:59:13;2.63;;;2.10;;
12912;SDS011;6524;51.368;11.984;2024-01-15T20:04:14;2.40;;;2.00;;
12912;SDS011;6524;51.368;11.984;2024-01-15T20:09:18;2.67;;;1.90;;
12912;SDS011;6524;51.368;11.984;2024-01-15T20:14:24;3.47;;;2.20;;
12912;SDS011;6524;51.368;11.984;2024-01-15T20:19:26;3.80;;;2.07;;
12912;SDS011;6524;51.368;11.984;2024-01-15T20:24:27;2.87;;;2.03;;
12912;SDS011;6524;51.368;11.984;2024-01-15T20:29:28;4.67;;;2.20;;
12912;SDS011;6524;51.368;11.984;2024-01-15T20:34:29;3.53;;;2.03;;
12912;SDS011;6524;51.368;11.984;2024-01-15T20:39:29;3.93;;;2.13;;
12912;SDS011;6524;51.368;11.984;2024-01-15T20:44:30;2.27;;;1.70;;
12912;SDS011;6524;51.368;11.984;2024-01-15T20:49:30;5.60;;;1.80;;
12912;SDS011;6524;51.368;11.984;2024-01-15T20:54:31;5.67;;;2.30;;
12912;SDS011;6524;51.368;11.984;2024-01-15T20:59:32;5.93;;;2.30;;
12912;SDS011;6524;51.368;11.984;2024-01-15T21:04:33;3.17;;;2.03;;
12912;SDS011;6524;51.368;11.984;2024-01-15T21:09:33;5.77;;;2.80;;
12912;SDS011;6524;51.368;11.984;2024-01-15T21:14:34;6.23;;;2.10;;
12912;SDS011;6524;51.368;11.984;2024-01-15T21:19:36;5.97;;;2.10;;
12912;SDS011;6524;51.368;11.984;2024-01-15T21:24:36;4.77;;;2.00;;
12912;SDS011;6524;51.368;11.984;2024-01-15T21:29:37;4.13;;;2.13;;
12912;SDS011;6524;51.368;11.984;2024-01-15T21:34:38;5.33;;;2.17;;
12912;SDS011;6524;51.368;11.984;2024-01-15T21:39:38;5.70;;;2.17;;
12912;SDS011;6524;51.368;11.984;2024-01-15T21:44:39;4.23;;;2.00;;
12912;SDS011;6524;51.368;11.984;2024-01-15T21:49:39;5.47;;;2.13;;
12912;SDS011;6524;51.368;11.984;2024-01-15T21:54:40;4.60;;;1.87;;
12912;SDS011;6524;51.368;11.984;2024-01-15T21:59:40;3.13;;;2.03;;
12912;SDS011;6524;51.368;11.984;2024-01-15T22:04:41;5.03;;;2.27;;
12912;SDS011;6524;51.368;11.984;2024-01-15T22:09:41;5.27;;;1.90;;
12912;SDS011;6524;51.368;11.984;2024-01-15T22:14:42;5.90;;;2.30;;
12912;SDS011;6524;51.368;11.984;2024-01-15T22:19:42;4.83;;;1.90;;
12912;SDS011;6524;51.368;11.984;2024-01-15T22:24:43;4.20;;;1.90;;
12912;SDS011;6524;51.368;11.984;2024-01-15T22:29:43;3.17;;;2.00;;
12912;SDS011;6524;51.368;11.984;2024-01-15T22:34:43;4.40;;;2.33;;
12912;SDS011;6524;51.368;11.984;2024-01-15T22:39:44;4.77;;;2.00;;
12912;SDS011;6524;51.368;11.984;2024-01-15T22:44:44;3.30;;;2.10;;
12912;SDS011;6524;51.368;11.984;2024-01-15T22:49:45;4.27;;;2.63;;
12912;SDS011;6524;51.368;11.984;2024-01-15T22:54:46;4.43;;;2.33;;
12912;SDS011;6524;51.368;11.984;2024-01-15T22:59:48;6.13;;;2.80;;
12912;SDS011;6524;51.368;11.984;2024-01-15T23:04:49;5.50;;;2.53;;
12912;SDS011;6524;51.368;11.984;2024-01-15T23:09:49;4.93;;;2.63;;
12912;SDS011;6524;51.368;11.984;2024-01-15T23:14:50;4.43;;;3.00;;
12912;SDS011;6524;51.368;11.984;2024-01-15T23:19:50;6.70;;;2.70;;
12912;SDS011;6524;51.368;11.984;2024-01-15T23:24:50;7.00;;;2.80;;
12912;SDS011;6524;51.368;11.984;2024-01-15T23:29:51;4.60;;;3.13;;
12912;SDS011;6524;51.368;11.984;2024-01-15T23:34:52;5.37;;;2.90;;
12912;SDS011;6524;51.368;11.984;2024-01-15T23:39:52;5.23;;;3.20;;
12912;SDS011;6524;51.368;11.984;2024-01-15T23:44:53;4.53;;;2.77;;
12912;SDS011;6524;51.368;11.984;2024-01-15T23:49:53;3.90;;;2.90;;
12912;SDS011;6524;51.368;11.984;2024-01-15T23:54:54;6.43;;;2.90;;
12912;SDS011;6524;51.368;11.984;2024-01-15T23:59:54;7.87;;;3.30;;
